Time;durP1;ratioP1;P1;durP2;ratioP2;P2;SDS_P1;SDS_P2;PMS_P1;PMS_P2;Temp;Humidity;BMP_temperature;BMP_pressure;BME280_temperature;BME280_humidity;BME280_pressure;Samples;Min_cycle;Max_cycle;Signal;HPM_P1;HPM_P2
2022/06/07 08:39:28;;;;;;;1.85;0.80;;;;;;;20.42;47.97;96540.31;2086721;28;20594;-66
2022/06/07 08:40:33;;;;;;;2.40;0.80;;;;;;;20.58;47.24;96551.25;2084788;28;20208;-65
2022/06/07 08:41:44;;;;;;;1.50;0.90;;;;;;;20.89;47.13;96559.25;2083791;28;20717;-65
2022/06/07 08:42:52;;;;;;;6.47;0.90;;;;;;;21.00;46.28;96566.25;2074748;28;20208;-65
2022/06/07 08:44:02;;;;;;;2.00;0.88;;;;;;;21.24;46.52;96554.44;2075222;28;20669;-65
2022/06/07 08:45:10;;;;;;;10.32;1.20;;;;;;;21.27;46.69;96559.44;2071557;28;20202;-64
2022/06/07 08:46:16;;;;;;;1.75;0.65;;;;;;;20.94;45.24;96564.13;2070912;28;20205;-64
2022/06/07 08:47:30;;;;;;;3.17;0.80;;;;;;;20.76;45.91;96559.47;2069214;28;20343;-64
2022/06/07 08:48:32;;;;;;;1.45;0.75;;;;;;;20.54;46.91;96558.66;2081484;28;20195;-65
2022/06/07 08:49:34;;;;;;;2.58;0.90;;;;;;;20.33;47.14;96561.34;2073844;28;20209;-64
2022/06/07 08:50:42;;;;;;;4.65;1.13;;;;;;;20.22;48.17;96562.25;2074457;28;20197;-65
2022/06/07 08:56:34;;;;;;;4.30;1.00;;;;;;;19.80;49.40;96554.28;2076976;28;20592;-61
2022/06/07 09:00:40;;;;;;;2.08;0.70;;;;;;;20.46;47.38;96547.88;2100363;27;20545;-62
2022/06/07 09:21:58;;;;;;;6.72;1.10;;;;;;;20.74;45.89;96532.22;2077784;28;20942;-61
2022/06/07 09:23:14;;;;;;;1.77;0.70;;;;;;;21.34;44.42;96528.72;2084403;28;20205;-60
2022/06/07 09:24:48;;;;;;;4.40;0.98;;;;;;;20.88;45.27;96531.84;2079314;28;20200;-61
2022/06/07 09:25:53;;;;;;;1.30;0.65;;;;;;;20.77;44.86;96531.13;2076252;28;20203;-61
2022/06/07 10:12:02;;;;;;;3.47;0.90;;;;;;;21.05;46.96;96510.94;2076825;28;20573;-58
2022/06/07 10:13:28;;;;;;;2.63;0.80;;;;;;;22.23;46.02;96506.41;2090637;28;20198;-59
2022/06/07 10:14:39;;;;;;;2.80;1.02;;;;;;;22.12;44.17;96507.44;2081241;28;20207;-58
2022/06/07 11:56:11;;;;;;;3.17;1.05;;;;;;;21.67;47.34;96447.81;2083849;28;21060;-59
2022/06/07 11:57:32;;;;;;;1.25;0.73;;;;;;;22.77;45.13;96448.09;2067682;28;20228;-60
2022/06/07 11:58:55;;;;;;;1.65;0.80;;;;;;;23.49;42.47;96444.66;2077234;28;20707;-59
2022/06/07 12:00:17;;;;;;;2.08;0.70;;;;;;;23.89;41.39;96442.41;2070202;28;20194;-60
2022/06/07 12:01:44;;;;;;;3.72;0.80;;;;;;;24.44;38.95;96426.06;2070162;28;20197;-62
2022/06/07 12:02:57;;;;;;;3.78;0.80;;;;;;;22.70;42.38;96431.03;2070301;28;20236;-59
2022/06/07 12:04:28;;;;;;;1.50;0.73;;;;;;;23.15;41.88;96438.19;2069828;28;20197;-59
2022/06/07 12:05:37;;;;;;;1.92;0.75;;;;;;;23.24;41.94;96424.97;2069328;28;20339;-60
2022/06/07 12:06:39;;;;;;;2.47;0.80;;;;;;;23.14;42.05;96430.31;2069782;28;20193;-59
2022/06/07 12:07:54;;;;;;;1.25;0.68;;;;;;;22.90;42.35;96422.94;2070416;28;20198;-60
2022/06/07 12:09:01;;;;;;;2.92;1.00;;;;;;;23.47;41.88;96430.63;2070198;28;20193;-58
2022/06/07 12:10:17;;;;;;;3.45;1.08;;;;;;;23.09;42.66;96424.63;2070348;28;20845;-59
2022/06/07 12:11:24;;;;;;;2.20;0.80;;;;;;;23.44;41.38;96421.13;2070246;28;20205;-59
2022/06/07 12:12:31;;;;;;;1.00;0.60;;;;;;;23.34;41.51;96422.19;2066911;28;20225;-59
2022/06/07 12:13:52;;;;;;;2.95;0.90;;;;;;;23.26;42.12;96425.63;2077564;28;20203;-59
2022/06/07 12:15:01;;;;;;;3.08;1.45;;;;;;;22.78;43.00;96419.66;2070226;28;20722;-60
2022/06/07 12:16:12;;;;;;;1.85;0.73;;;;;;;22.52;42.92;96414.22;2070342;28;20222;-60
2022/06/07 12:17:24;;;;;;;3.00;1.10;;;;;;;22.37;43.64;96413.88;2065922;28;20225;-60
2022/06/07 12:18:27;;;;;;;1.67;0.80;;;;;;;22.36;43.11;96418.34;2069070;28;20208;-60
2022/06/07 12:19:35;;;;;;;1.75;0.70;;;;;;;22.23;43.58;96420.47;2067060;28;20556;-59
2022/06/07 12:20:40;;;;;;;2.10;0.90;;;;;;;21.98;45.08;96421.00;2070195;28;20198;-60
2022/06/07 12:21:45;;;;;;;2.22;0.82;;;;;;;22.21;43.64;96417.97;2069918;28;20198;-59
2022/06/07 12:22:46;;;;;;;3.65;0.80;;;;;;;22.44;43.65;96407.81;2070237;28;20198;-59
2022/06/07 12:23:52;;;;;;;1.52;0.93;;;;;;;21.41;45.48;96415.66;2070349;28;20610;-60
2022/06/07 12:25:11;;;;;;;1.70;0.90;;;;;;;21.65;45.04;96415.22;2068960;28;20236;-60
2022/06/07 12:26:31;;;;;;;3.15;0.90;;;;;;;21.86;44.41;96414.19;2070034;28;20194;-59
2022/06/07 12:27:44;;;;;;;2.10;1.00;;;;;;;21.89;44.87;96413.91;2070067;28;20225;-61
2022/06/07 12:29:00;;;;;;;1.70;0.70;;;;;;;21.57;45.77;96412.44;2069565;28;20200;-60
2022/06/07 12:30:21;;;;;;;1.45;0.70;;;;;;;21.62;45.32;96404.03;2069884;28;20213;-61
2022/06/07 12:31:27;;;;;;;4.40;0.77;;;;;;;21.15;47.18;96407.41;2070313;28;20190;-61
2022/06/07 12:36:29;;;;;;;9.15;0.70;;;;;;;21.93;45.20;96411.78;2084083;28;20567;-59
2022/06/07 12:37:34;;;;;;;1.83;0.90;;;;;;;21.87;45.02;96405.22;2070071;28;20225;-58
2022/06/07 12:38:35;;;;;;;1.42;0.70;;;;;;;21.74;45.66;96404.69;2070556;28;20209;-59
2022/06/07 12:39:56;;;;;;;1.23;0.80;;;;;;;22.15;45.35;96395.47;2070593;28;20577;-59
2022/06/07 12:41:12;;;;;;;1.40;0.77;;;;;;;22.45;43.76;96404.16;2069233;28;20202;-58
2022/06/07 12:42:16;;;;;;;1.40;0.80;;;;;;;22.55;44.58;96404.13;2064519;28;20225;-59
2022/06/07 12:43:28;;;;;;;1.77;0.70;;;;;;;22.84;43.09;96397.75;2069929;28;20696;-58
2022/06/07 12:44:31;;;;;;;4.40;0.70;;;;;;;22.14;44.27;96406.25;2068308;28;20197;-58
2022/06/07 12:45:34;;;;;;;1.33;0.70;;;;;;;22.38;44.40;96397.75;2070435;28;20201;-58
2022/06/07 12:46:45;;;;;;;2.20;0.75;;;;;;;22.42;44.62;96407.09;2061264;28;20197;-58
2022/06/07 12:47:56;;;;;;;1.30;0.70;;;;;;;22.38;44.60;96387.13;2077765;28;20229;-59
2022/06/07 12:48:59;;;;;;;1.20;0.65;;;;;;;22.32;43.32;96388.53;2074571;28;20198;-59
2022/06/07 12:50:01;;;;;;;2.85;1.05;;;;;;;22.52;44.32;96382.28;2069460;28;20561;-58
2022/06/07 12:51:30;;;;;;;1.70;0.88;;;;;;;22.73;42.54;96389.97;2069656;28;20200;-58
2022/06/07 12:52:32;;;;;;;1.40;0.70;;;;;;;22.97;43.19;96384.91;2069969;28;20226;-59
2022/06/07 12:53:36;;;;;;;1.55;0.98;;;;;;;23.31;42.47;96381.56;2070371;28;20193;-59
2022/06/07 12:54:37;;;;;;;1.40;0.82;;;;;;;23.69;42.11;96383.97;2070341;28;20201;-59
2022/06/07 12:55:39;;;;;;;1.77;0.73;;;;;;;23.35;42.13;96387.44;2070017;28;20209;-59
2022/06/07 12:56:43;;;;;;;1.70;1.00;;;;;;;23.03;42.12;96388.78;2069828;28;20270;-60
2022/06/07 12:57:50;;;;;;;2.67;0.77;;;;;;;23.55;42.40;96385.38;2070312;28;20202;-60
2022/06/07 12:58:53;;;;;;;1.10;0.60;;;;;;;24.23;40.60;96377.63;2070239;28;20220;-62
2022/06/07 13:00:03;;;;;;;1.70;0.60;;;;;;;24.08;40.54;96388.06;2070480;28;20627;-63
2022/06/07 13:01:35;;;;;;;1.30;0.80;;;;;;;23.88;41.95;96379.44;2070132;28;20197;-62
2022/06/07 13:02:44;;;;;;;1.58;0.60;;;;;;;23.54;42.27;96383.72;2069515;28;20277;-63
2022/06/07 13:03:46;;;;;;;1.52;1.13;;;;;;;23.92;40.55;96379.00;2068935;28;20194;-62
2022/06/07 13:04:52;;;;;;;1.45;0.70;;;;;;;24.32;40.75;96383.84;2070244;28;20248;-62
2022/06/07 13:06:08;;;;;;;2.13;1.00;;;;;;;24.48;40.14;96383.91;2070043;28;20639;-65
2022/06/07 13:07:12;;;;;;;1.48;0.90;;;;;;;24.29;41.01;96379.66;2065679;28;20228;-65
2022/06/07 13:08:37;;;;;;;1.08;0.60;;;;;;;23.24;42.11;96379.69;2076730;28;20599;-65
2022/06/07 13:09:39;;;;;;;1.20;0.70;;;;;;;23.18;42.67;96373.13;2069973;28;20569;-65
2022/06/07 13:10:41;;;;;;;2.45;0.80;;;;;;;22.66;43.38;96364.00;2070275;28;20538;-65
2022/06/07 13:11:43;;;;;;;2.20;0.70;;;;;;;22.33;43.70;96374.25;2062222;28;20236;-65
2022/06/07 13:12:48;;;;;;;1.20;0.60;;;;;;;22.81;43.28;96379.44;2069511;28;20198;-64
2022/06/07 13:13:51;;;;;;;1.52;0.80;;;;;;;22.55;43.75;96374.00;2068915;28;20557;-63
2022/06/07 13:14:54;;;;;;;1.60;0.80;;;;;;;22.57;44.23;96382.69;2070220;28;20232;-64
2022/06/07 13:16:01;;;;;;;7.70;4.10;;;;;;;22.78;43.27;96385.06;2070000;28;20194;-64
2022/06/07 13:17:37;;;;;;;2.08;0.90;;;;;;;22.81;43.43;96376.78;2069818;28;20232;-64
2022/06/07 13:18:54;;;;;;;9.32;0.88;;;;;;;23.21;41.57;96382.63;2069873;28;20201;-64
2022/06/07 13:19:56;;;;;;;2.00;0.68;;;;;;;22.94;41.75;96379.91;2069677;28;20201;-64
2022/06/07 13:21:15;;;;;;;1.30;0.70;;;;;;;22.99;41.73;96385.59;2069463;28;20585;-64
2022/06/07 13:22:17;;;;;;;2.05;0.70;;;;;;;23.03;42.29;96374.63;2062003;28;20247;-61
2022/06/07 13:23:18;;;;;;;1.55;0.70;;;;;;;22.80;43.09;96372.44;2077558;28;20201;-61
2022/06/07 13:24:27;;;;;;;1.70;0.70;;;;;;;22.90;43.40;96369.69;2071416;28;20209;-62
2022/06/07 13:25:31;;;;;;;4.72;1.13;;;;;;;22.40;43.07;96379.84;2070032;28;20755;-64
2022/06/07 13:26:45;;;;;;;1.30;0.70;;;;;;;22.28;43.88;96371.22;2060945;28;20193;-64
2022/06/07 13:28:05;;;;;;;4.47;0.90;;;;;;;22.59;43.00;96373.56;2077899;28;20204;-64
2022/06/07 13:29:18;;;;;;;1.75;0.60;;;;;;;22.85;43.11;96371.97;2071009;28;20297;-64
2022/06/07 13:30:35;;;;;;;2.95;0.70;;;;;;;22.56;43.02;96365.03;2070185;28;20202;-64
2022/06/07 13:31:48;;;;;;;6.18;0.65;;;;;;;22.44;42.57;96375.06;2060679;28;20252;-64
2022/06/07 13:33:03;;;;;;;1.52;0.80;;;;;;;22.43;42.35;96368.06;2077503;28;20259;-64
2022/06/07 13:34:17;;;;;;;1.10;0.70;;;;;;;22.60;42.13;96369.06;2071817;28;20197;-64
2022/06/07 13:35:26;;;;;;;5.20;0.73;;;;;;;23.05;42.36;96362.03;2069589;28;20204;-65
2022/06/07 13:36:39;;;;;;;1.50;0.60;;;;;;;23.15;41.40;96360.13;2068677;28;20217;-65
2022/06/07 13:37:57;;;;;;;2.90;0.70;;;;;;;23.14;42.68;96361.09;2068594;28;20218;-65
2022/06/07 13:39:06;;;;;;;2.30;0.80;;;;;;;23.63;43.61;96360.66;2069185;28;20208;-65
2022/06/07 13:40:16;;;;;;;1.67;0.60;;;;;;;23.66;43.34;96355.00;2069945;28;20289;-65
2022/06/07 13:41:24;;;;;;;3.25;1.10;;;;;;;23.60;43.75;96356.47;2069926;28;20650;-66
2022/06/07 13:42:34;;;;;;;1.60;0.70;;;;;;;23.95;43.60;96360.00;2066530;28;20755;-65
2022/06/07 13:43:56;;;;;;;1.95;0.90;;;;;;;23.93;43.93;96362.00;2076933;28;20213;-65
2022/06/07 13:45:23;;;;;;;1.10;0.70;;;;;;;24.11;43.17;96361.06;2070220;28;20205;-66
2022/06/07 13:46:36;;;;;;;1.60;0.60;;;;;;;24.17;42.98;96357.75;2068645;28;20224;-66
2022/06/07 13:48:00;;;;;;;1.30;0.80;;;;;;;24.20;42.81;96359.28;2065022;28;20229;-67
2022/06/07 13:53:58;;;;;;;1.30;0.80;;;;;;;23.97;42.79;96357.16;2069794;28;20217;-63
2022/06/07 13:54:59;;;;;;;1.58;0.80;;;;;;;23.79;42.76;96359.88;2064362;28;20202;-62
2022/06/07 13:56:04;;;;;;;3.95;0.80;;;;;;;23.69;43.45;96354.66;2064370;28;20201;-62
2022/06/07 13:57:06;;;;;;;3.13;1.00;;;;;;;23.98;43.22;96360.69;2064041;28;20232;-61
2022/06/07 13:58:07;;;;;;;1.45;0.70;;;;;;;24.08;42.72;96356.88;2064389;28;20207;-64
2022/06/07 13:59:11;;;;;;;1.20;0.80;;;;;;;24.24;41.86;96357.94;2064481;28;20202;-64
2022/06/07 14:00:14;;;;;;;1.10;0.68;;;;;;;23.88;41.41;96358.09;2064418;28;20225;-64
2022/06/07 14:01:29;;;;;;;1.00;0.60;;;;;;;23.76;41.92;96361.03;2063307;28;20198;-64
2022/06/07 14:02:31;;;;;;;1.35;0.80;;;;;;;24.73;40.80;96359.94;2062888;28;20246;-65
2022/06/07 14:03:57;;;;;;;4.05;0.70;;;;;;;24.76;40.30;96362.31;2064546;28;20712;-64
2022/06/07 14:04:58;;;;;;;1.10;0.60;;;;;;;24.69;40.62;96347.94;2064512;28;20698;-62
2022/06/07 14:06:00;;;;;;;1.15;0.70;;;;;;;24.75;39.64;96350.78;2064427;28;20202;-63
2022/06/07 14:07:02;;;;;;;1.52;0.60;;;;;;;24.55;39.83;96350.22;2057853;28;20213;-63
2022/06/07 14:08:17;;;;;;;3.00;0.77;;;;;;;25.21;39.74;96350.28;2071799;28;20189;-64
2022/06/07 14:09:29;;;;;;;2.78;0.65;;;;;;;25.39;39.52;96347.47;2065717;28;20206;-63
2022/06/07 14:10:30;;;;;;;1.20;0.70;;;;;;;25.57;39.53;96351.78;2064007;28;20261;-63
2022/06/07 14:11:38;;;;;;;3.35;0.90;;;;;;;24.92;40.35;96346.31;2063531;28;20198;-63
2022/06/07 14:12:40;;;;;;;1.25;0.70;;;;;;;25.27;40.64;96349.63;2064127;28;20210;-63
2022/06/07 14:13:41;;;;;;;1.55;0.75;;;;;;;25.09;40.98;96346.31;2064316;28;20202;-65
2022/06/07 14:14:43;;;;;;;1.42;0.65;;;;;;;24.84;40.74;96346.28;2064277;28;20202;-63
2022/06/07 14:15:47;;;;;;;1.60;0.70;;;;;;;25.01;40.86;96333.78;2064435;28;20191;-63
2022/06/07 14:17:02;;;;;;;3.28;0.70;;;;;;;25.01;40.25;96344.44;2056151;28;20235;-63
2022/06/07 14:18:07;;;;;;;5.68;0.70;;;;;;;24.78;41.26;96342.47;2071609;28;20204;-64
2022/06/07 14:19:15;;;;;;;1.30;0.65;;;;;;;24.11;42.08;96329.06;2062996;28;20199;-63
2022/06/07 14:20:22;;;;;;;3.15;0.70;;;;;;;24.58;41.32;96341.03;2063700;28;20199;-63
2022/06/07 14:21:24;;;;;;;1.88;0.70;;;;;;;24.83;40.74;96333.13;2063162;28;20206;-63
2022/06/07 14:22:33;;;;;;;2.60;0.75;;;;;;;24.99;39.61;96335.78;2061545;28;20217;-62
2022/06/07 14:23:34;;;;;;;2.05;0.70;;;;;;;24.80;39.74;96334.28;2070232;28;20194;-63
2022/06/07 14:24:36;;;;;;;1.45;0.70;;;;;;;24.58;39.82;96311.69;2064343;28;20680;-62
2022/06/07 14:25:38;;;;;;;2.13;0.70;;;;;;;23.95;41.30;96303.19;2064274;28;20646;-64
2022/06/07 14:26:39;;;;;;;2.17;0.70;;;;;;;24.47;40.76;96336.84;2055251;28;20194;-64
2022/06/07 14:27:40;;;;;;;1.73;0.70;;;;;;;24.66;39.76;96337.56;2071690;28;20205;-65
2022/06/07 14:28:42;;;;;;;3.35;0.80;;;;;;;24.80;38.97;96336.09;2070258;28;20193;-65
2022/06/07 14:29:44;;;;;;;1.20;0.70;;;;;;;24.79;39.84;96329.94;2063188;28;20540;-64
2022/06/07 14:30:48;;;;;;;2.00;0.88;;;;;;;24.67;40.85;96325.91;2063679;28;20205;-65
2022/06/07 14:31:50;;;;;;;1.27;0.68;;;;;;;24.88;41.17;96326.25;2063224;28;20293;-64
2022/06/07 14:32:55;;;;;;;2.00;0.80;;;;;;;25.03;41.38;96336.28;2064232;28;20201;-65
2022/06/07 14:33:56;;;;;;;1.20;0.70;;;;;;;25.03;41.53;96331.78;2064240;28;20194;-65
2022/06/07 14:34:58;;;;;;;1.60;0.70;;;;;;;25.01;41.12;96328.44;2063994;28;20191;-65
2022/06/07 14:35:59;;;;;;;2.22;0.85;;;;;;;24.73;40.94;96328.75;2064030;28;20237;-65
2022/06/07 14:37:01;;;;;;;2.85;0.70;;;;;;;24.98;41.11;96336.78;2058301;28;20229;-66
2022/06/07 14:38:02;;;;;;;1.75;0.90;;;;;;;24.93;40.94;96333.78;2070574;28;20208;-65
2022/06/07 14:39:04;;;;;;;3.58;1.45;;;;;;;24.64;40.76;96336.91;2067462;28;20198;-65
2022/06/07 14:40:14;;;;;;;1.30;0.70;;;;;;;25.21;40.88;96336.13;2064232;28;20206;-66
2022/06/07 14:41:16;;;;;;;2.20;1.00;;;;;;;25.56;40.48;96329.59;2064057;28;20199;-65
2022/06/07 14:42:17;;;;;;;1.40;0.75;;;;;;;25.06;40.56;96338.63;2060201;28;20233;-66
2022/06/07 14:43:22;;;;;;;2.80;0.80;;;;;;;24.70;41.34;96331.75;2071623;28;20197;-65
2022/06/07 14:44:23;;;;;;;2.00;0.98;;;;;;;24.89;41.02;96333.28;2064875;28;20677;-66
2022/06/07 14:45:36;;;;;;;4.43;0.77;;;;;;;25.09;40.88;96346.31;2064252;28;20696;-66
2022/06/07 14:46:39;;;;;;;2.55;0.70;;;;;;;25.25;40.18;96342.78;2054359;28;20277;-66
2022/06/07 14:47:43;;;;;;;1.40;0.75;;;;;;;25.03;40.13;96339.78;2071588;28;20293;-66
2022/06/07 14:48:50;;;;;;;3.63;0.90;;;;;;;25.03;40.02;96338.97;2068970;28;20831;-65
2022/06/07 14:49:55;;;;;;;2.20;0.70;;;;;;;25.30;40.27;96343.13;2064085;28;20286;-66
2022/06/07 14:51:01;;;;;;;2.97;0.90;;;;;;;24.83;40.11;96338.44;2063920;28;20987;-65
2022/06/07 14:52:05;;;;;;;1.65;0.60;;;;;;;24.62;41.12;96337.06;2062625;28;20210;-65
2022/06/07 14:53:11;;;;;;;1.73;0.95;;;;;;;24.49;41.42;96342.84;2063991;28;20217;-65
2022/06/07 14:54:19;;;;;;;1.27;0.70;;;;;;;24.41;42.16;96338.31;2063853;28;20209;-65
2022/06/07 14:55:23;;;;;;;4.32;1.00;;;;;;;24.50;42.13;96341.84;2063766;28;20666;-65
2022/06/07 14:56:28;;;;;;;1.65;0.60;;;;;;;24.70;42.03;96336.28;2063052;28;20206;-64
2022/06/07 14:57:29;;;;;;;1.58;0.70;;;;;;;24.52;42.25;96336.34;2054211;28;20230;-64
2022/06/07 14:58:31;;;;;;;2.85;0.90;;;;;;;24.01;42.94;96331.88;2064063;28;20229;-65
2022/06/07 14:59:32;;;;;;;5.38;1.08;;;;;;;24.02;43.46;96330.84;2063061;28;20206;-67
2022/06/07 15:00:34;;;;;;;1.33;0.70;;;;;;;24.34;42.31;96332.00;2063940;28;20213;-65
2022/06/07 15:01:57;;;;;;;3.75;1.02;;;;;;;24.33;42.86;96333.00;2055074;28;20198;-65
2022/06/07 15:03:01;;;;;;;1.60;0.85;;;;;;;24.05;42.76;96327.03;2061726;28;20194;-65
2022/06/07 15:04:05;;;;;;;3.25;0.80;;;;;;;23.73;42.24;96328.53;2055901;28;20199;-64
2022/06/07 15:05:27;;;;;;;1.02;0.70;;;;;;;23.86;42.50;96333.41;2063067;28;20585;-65
2022/06/07 15:06:34;;;;;;;2.55;0.90;;;;;;;23.38;43.18;96311.69;2058643;28;20226;-64
2022/06/07 15:07:43;;;;;;;1.17;0.77;;;;;;;23.25;44.15;96331.56;2063856;28;20205;-65
2022/06/07 15:08:45;;;;;;;3.97;1.02;;;;;;;23.54;44.42;96334.91;2063636;28;20202;-64
2022/06/07 15:09:46;;;;;;;1.70;0.90;;;;;;;23.56;44.02;96319.63;2063770;28;20205;-64
2022/06/07 15:10:48;;;;;;;1.30;0.77;;;;;;;23.45;44.85;96328.69;2064106;28;20194;-64
2022/06/07 15:11:50;;;;;;;1.75;0.80;;;;;;;23.45;44.20;96329.56;2063524;28;20589;-65
2022/06/07 15:12:53;;;;;;;1.20;0.80;;;;;;;23.12;44.35;96325.78;2063955;28;20203;-65
2022/06/07 15:13:54;;;;;;;3.15;0.70;;;;;;;23.12;45.18;96320.44;2063937;28;20218;-68
2022/06/07 15:14:56;;;;;;;1.52;0.90;;;;;;;23.28;44.81;96327.78;2063926;28;20705;-66
2022/06/07 15:16:02;;;;;;;3.08;0.70;;;;;;;23.09;45.54;96323.44;2063887;28;20198;-66
2022/06/07 15:17:04;;;;;;;1.80;0.90;;;;;;;22.75;45.97;96318.81;2057784;28;20241;-66
2022/06/07 15:18:06;;;;;;;1.80;0.70;;;;;;;23.07;45.05;96330.72;2071294;28;20201;-66
2022/06/07 15:19:16;;;;;;;3.72;0.80;;;;;;;22.94;46.09;96325.81;2064412;28;20557;-64
2022/06/07 15:20:39;;;;;;;1.48;0.93;;;;;;;22.80;45.92;96332.50;2063819;28;20590;-64
2022/06/07 15:21:46;;;;;;;2.22;0.90;;;;;;;22.89;45.46;96326.25;2055099;28;20826;-67
2022/06/07 15:22:49;;;;;;;3.20;0.80;;;;;;;22.92;45.02;96325.97;2070959;28;20935;-66
2022/06/07 15:23:52;;;;;;;20.95;13.38;;;;;;;23.10;45.17;96325.94;2068002;28;20642;-67
